Shao Shan 5 — VRKO9 — position and weather

sailwx.info

Track history (hours):
 
Tides and Currents Weather Stations Pressure Air Temp Water Temp Dewpoint Dewpoint Depression Visibility Wind Speed Wind Dir Waves Ship Positions

Shao Shan 5

Last reported at 2017-Feb-09 17:26 UTC. Time now 2017-Feb-20 14:09 UTC.
Position S 32°06' E 031°14'.
Warning: this ship's position is 10 days out of date.

Length 225 m; draft 9.5 m.

Type: Cargo ship. MMSI: 477325700.

Date/timePositionNaut miles runAvg speedWind from/ knotsBaromVisibWave heightAir tempDewpointWater temp
2017-Feb-09 17:26S 32°06' E 031°14'2312.0
2017-Feb-09 15:30S 31°57' E 031°39'1211.6
2017-Feb-09 14:30S 31°52' E 031°52'1111.7
2017-Feb-09 13:34S 31°48' E 032°03'1211.9
2017-Feb-09 12:32S 31°42' E 032°16'1411.8
2017-Feb-09 11:21S 31°36' E 032°31'1312.0
2017-Feb-09 10:17S 31°31' E 032°45'  
2017-Feb-04 17:27S 20°52' E 057°15'1713.2
2017-Feb-04 16:11S 20°45' E 057°30'913.1
2017-Feb-04 15:29S 20°40' E 057°39'1312.8
2017-Feb-04 14:28S 20°33' E 057°50'1212.7
2017-Feb-04 13:32S 20°26' E 058°01'  
Track history (hours):
 
Tides and Currents Weather Stations Pressure Air Temp Water Temp Dewpoint Dewpoint Depression Visibility Wind Speed Wind Dir Waves Ship Positions

Shao Shan 5

Last reported at 2017-Feb-09 17:26 UTC. Time now 2017-Feb-20 14:09 UTC.
Position S 32°06' E 031°14'.
Warning: this ship's position is 10 days out of date.

Length 225 m; draft 9.5 m.

Type: Cargo ship. MMSI: 477325700.

Date/timePositionNaut miles runAvg speedWind from/ knotsBaromVisibWave heightAir tempDewpointWater temp
2017-Feb-09 17:26S 32°06' E 031°14'2312.0
2017-Feb-09 15:30S 31°57' E 031°39'1211.6
2017-Feb-09 14:30S 31°52' E 031°52'1111.7
2017-Feb-09 13:34S 31°48' E 032°03'1211.9
2017-Feb-09 12:32S 31°42' E 032°16'1411.8
2017-Feb-09 11:21S 31°36' E 032°31'1312.0
2017-Feb-09 10:17S 31°31' E 032°45'  
2017-Feb-04 17:27S 20°52' E 057°15'1713.2
2017-Feb-04 16:11S 20°45' E 057°30'913.1
2017-Feb-04 15:29S 20°40' E 057°39'1312.8
2017-Feb-04 14:28S 20°33' E 057°50'1212.7
2017-Feb-04 13:32S 20°26' E 058°01'  

Dump ship's entire track history